sensor_id;sensor_type;location;lat;lon;timestamp;temperature;humidity
60717;DHT22;46566;52.700;6.192;2023-02-03T00:01:02;8.50;99.90
60717;DHT22;46566;52.700;6.192;2023-02-03T00:03:28;8.40;99.90
60717;DHT22;46566;52.700;6.192;2023-02-03T00:05:53;8.50;99.90
60717;DHT22;46566;52.700;6.192;2023-02-03T00:08:20;8.50;99.90
60717;DHT22;46566;52.700;6.192;2023-02-03T00:10:46;8.40;99.90
60717;DHT22;46566;52.700;6.192;2023-02-03T00:13:13;8.50;99.90
60717;DHT22;46566;52.700;6.192;2023-02-03T00:15:38;8.50;99.90
60717;DHT22;46566;52.700;6.192;2023-02-03T00:18:04;8.50;99.90
60717;DHT22;46566;52.700;6.192;2023-02-03T00:20:30;8.50;99.90
60717;DHT22;46566;52.700;6.192;2023-02-03T00:23:05;8.50;99.90
60717;DHT22;46566;52.700;6.192;2023-02-03T00:25:31;8.50;99.90
60717;DHT22;46566;52.700;6.192;2023-02-03T00:27:57;8.50;99.90
60717;DHT22;46566;52.700;6.192;2023-02-03T00:30:22;8.50;99.90
60717;DHT22;46566;52.700;6.192;2023-02-03T00:32:48;8.50;99.90
60717;DHT22;46566;52.700;6.192;2023-02-03T00:35:14;8.50;99.90
60717;DHT22;46566;52.700;6.192;2023-02-03T00:37:39;8.50;99.90
60717;DHT22;46566;52.700;6.192;2023-02-03T00:40:06;8.50;99.90
60717;DHT22;46566;52.700;6.192;2023-02-03T00:42:33;8.50;99.90
60717;DHT22;46566;52.700;6.192;2023-02-03T00:44:59;8.50;99.90
60717;DHT22;46566;52.700;6.192;2023-02-03T00:47:25;8.50;99.90
60717;DHT22;46566;52.700;6.192;2023-02-03T00:49:51;8.50;99.90
60717;DHT22;46566;52.700;6.192;2023-02-03T00:52:16;8.60;99.90
60717;DHT22;46566;52.700;6.192;2023-02-03T00:54:42;8.60;99.90
60717;DHT22;46566;52.700;6.192;2023-02-03T00:57:08;8.60;99.90
60717;DHT22;46566;52.700;6.192;2023-02-03T00:59:33;8.40;99.90
60717;DHT22;46566;52.700;6.192;2023-02-03T01:01:59;8.40;99.90
60717;DHT22;46566;52.700;6.192;2023-02-03T01:04:25;8.40;99.90
60717;DHT22;46566;52.700;6.192;2023-02-03T01:06:51;8.40;99.90
60717;DHT22;46566;52.700;6.192;2023-02-03T01:09:20;8.40;99.90
60717;DHT22;46566;52.700;6.192;2023-02-03T01:11:46;8.40;99.90
60717;DHT22;46566;52.700;6.192;2023-02-03T01:14:13;8.40;99.90
60717;DHT22;46566;52.700;6.192;2023-02-03T01:16:38;8.40;99.90
60717;DHT22;46566;52.700;6.192;2023-02-03T01:19:04;8.40;99.90
60717;DHT22;46566;52.700;6.192;2023-02-03T01:21:30;8.40;99.90
60717;DHT22;46566;52.700;6.192;2023-02-03T01:23:58;8.40;99.90
60717;DHT22;46566;52.700;6.192;2023-02-03T01:26:24;8.40;99.90
60717;DHT22;46566;52.700;6.192;2023-02-03T01:28:51;8.40;99.90
60717;DHT22;46566;52.700;6.192;2023-02-03T01:31:27;8.40;99.90
60717;DHT22;46566;52.700;6.192;2023-02-03T01:33:53;8.40;99.90
60717;DHT22;46566;52.700;6.192;2023-02-03T01:36:21;8.40;99.90
60717;DHT22;46566;52.700;6.192;2023-02-03T01:38:47;8.40;99.90
60717;DHT22;46566;52.700;6.192;2023-02-03T01:41:16;8.40;99.90
60717;DHT22;46566;52.700;6.192;2023-02-03T01:43:48;8.40;99.90
60717;DHT22;46566;52.700;6.192;2023-02-03T01:46:21;8.40;99.90
60717;DHT22;46566;52.700;6.192;2023-02-03T01:48:49;8.40;99.90
60717;DHT22;46566;52.700;6.192;2023-02-03T01:51:17;8.40;99.90
60717;DHT22;46566;52.700;6.192;2023-02-03T01:53:43;8.40;99.90
60717;DHT22;46566;52.700;6.192;2023-02-03T01:56:09;8.40;99.90
60717;DHT22;46566;52.700;6.192;2023-02-03T01:58:38;8.40;99.90
60717;DHT22;46566;52.700;6.192;2023-02-03T02:01:04;8.40;99.90
60717;DHT22;46566;52.700;6.192;2023-02-03T02:03:35;8.40;99.90
60717;DHT22;46566;52.700;6.192;2023-02-03T02:06:08;8.30;99.90
60717;DHT22;46566;52.700;6.192;2023-02-03T02:08:35;8.40;99.90
60717;DHT22;46566;52.700;6.192;2023-02-03T02:11:02;8.40;99.90
60717;DHT22;46566;52.700;6.192;2023-02-03T02:13:30;8.40;99.90
60717;DHT22;46566;52.700;6.192;2023-02-03T02:15:59;8.40;99.90
60717;DHT22;46566;52.700;6.192;2023-02-03T02:32:34;8.40;99.90
60717;DHT22;46566;52.700;6.192;2023-02-03T02:38:09;8.40;99.90
60717;DHT22;46566;52.700;6.192;2023-02-03T02:46:46;8.40;99.90
60717;DHT22;46566;52.700;6.192;2023-02-03T02:49:27;8.40;99.90
60717;DHT22;46566;52.700;6.192;2023-02-03T02:51:55;8.40;99.90
60717;DHT22;46566;52.700;6.192;2023-02-03T02:54:24;8.40;99.90
60717;DHT22;46566;52.700;6.192;2023-02-03T02:56:55;8.40;99.90
60717;DHT22;46566;52.700;6.192;2023-02-03T02:59:22;8.40;99.90
60717;DHT22;46566;52.700;6.192;2023-02-03T03:01:48;8.40;99.90
60717;DHT22;46566;52.700;6.192;2023-02-03T03:04:15;8.40;99.90
60717;DHT22;46566;52.700;6.192;2023-02-03T03:06:47;8.40;99.90
60717;DHT22;46566;52.700;6.192;2023-02-03T03:09:17;8.40;99.90
60717;DHT22;46566;52.700;6.192;2023-02-03T03:12:05;8.40;99.90
60717;DHT22;46566;52.700;6.192;2023-02-03T03:14:33;8.40;99.90
60717;DHT22;46566;52.700;6.192;2023-02-03T03:17:03;8.40;99.90
60717;DHT22;46566;52.700;6.192;2023-02-03T03:19:36;8.40;99.90
60717;DHT22;46566;52.700;6.192;2023-02-03T03:22:05;8.50;99.90
60717;DHT22;46566;52.700;6.192;2023-02-03T03:24:38;8.50;99.90
60717;DHT22;46566;52.700;6.192;2023-02-03T03:27:22;8.50;99.90
60717;DHT22;46566;52.700;6.192;2023-02-03T03:32:16;8.50;99.90
60717;DHT22;46566;52.700;6.192;2023-02-03T03:34:41;8.50;99.90
60717;DHT22;46566;52.700;6.192;2023-02-03T03:37:17;8.50;99.90
60717;DHT22;46566;52.700;6.192;2023-02-03T03:39:53;8.50;99.90
60717;DHT22;46566;52.700;6.192;2023-02-03T03:42:23;8.50;99.90
60717;DHT22;46566;52.700;6.192;2023-02-03T03:45:01;8.50;99.90
60717;DHT22;46566;52.700;6.192;2023-02-03T03:47:33;8.50;99.90
60717;DHT22;46566;52.700;6.192;2023-02-03T03:50:02;8.50;99.90
60717;DHT22;46566;52.700;6.192;2023-02-03T03:52:31;8.50;99.90
60717;DHT22;46566;52.700;6.192;2023-02-03T03:55:01;8.50;99.90
60717;DHT22;46566;52.700;6.192;2023-02-03T03:57:34;8.50;99.90
60717;DHT22;46566;52.700;6.192;2023-02-03T04:00:03;8.50;99.90
60717;DHT22;46566;52.700;6.192;2023-02-03T04:02:39;8.50;99.90
60717;DHT22;46566;52.700;6.192;2023-02-03T04:05:06;8.50;99.90
60717;DHT22;46566;52.700;6.192;2023-02-03T04:07:41;8.50;99.90
60717;DHT22;46566;52.700;6.192;2023-02-03T04:10:20;8.50;99.90
60717;DHT22;46566;52.700;6.192;2023-02-03T04:12:46;8.50;99.90
60717;DHT22;46566;52.700;6.192;2023-02-03T04:15:12;8.50;99.90
60717;DHT22;46566;52.700;6.192;2023-02-03T04:17:37;8.50;99.90
60717;DHT22;46566;52.700;6.192;2023-02-03T04:20:04;8.50;99.90
60717;DHT22;46566;52.700;6.192;2023-02-03T04:22:30;8.50;99.90
60717;DHT22;46566;52.700;6.192;2023-02-03T04:24:56;8.50;99.90
60717;DHT22;46566;52.700;6.192;2023-02-03T04:27:24;8.50;99.90
60717;DHT22;46566;52.700;6.192;2023-02-03T04:29:50;8.50;99.90
60717;DHT22;46566;52.700;6.192;2023-02-03T04:32:16;8.50;99.90
60717;DHT22;46566;52.700;6.192;2023-02-03T04:34:41;8.50;99.90
60717;DHT22;46566;52.700;6.192;2023-02-03T04:37:07;8.50;99.90
60717;DHT22;46566;52.700;6.192;2023-02-03T04:39:33;8.50;99.90
60717;DHT22;46566;52.700;6.192;2023-02-03T04:41:58;8.50;99.90
60717;DHT22;46566;52.700;6.192;2023-02-03T04:44:24;8.50;99.90
60717;DHT22;46566;52.700;6.192;2023-02-03T04:46:49;8.50;99.90
60717;DHT22;46566;52.700;6.192;2023-02-03T04:49:15;8.50;99.90
60717;DHT22;46566;52.700;6.192;2023-02-03T04:51:42;8.40;99.90
60717;DHT22;46566;52.700;6.192;2023-02-03T04:54:09;8.50;99.90
60717;DHT22;46566;52.700;6.192;2023-02-03T04:56:36;8.40;99.90
60717;DHT22;46566;52.700;6.192;2023-02-03T04:59:01;8.40;99.90
60717;DHT22;46566;52.700;6.192;2023-02-03T05:01:27;8.40;99.90
60717;DHT22;46566;52.700;6.192;2023-02-03T05:03:53;8.40;99.90
60717;DHT22;46566;52.700;6.192;2023-02-03T05:06:24;8.50;99.90
60717;DHT22;46566;52.700;6.192;2023-02-03T05:08:51;8.40;99.90
60717;DHT22;46566;52.700;6.192;2023-02-03T05:11:17;8.40;99.90
60717;DHT22;46566;52.700;6.192;2023-02-03T05:13:42;8.50;99.90
60717;DHT22;46566;52.700;6.192;2023-02-03T05:16:08;8.50;99.90
60717;DHT22;46566;52.700;6.192;2023-02-03T05:18:33;8.50;99.90
60717;DHT22;46566;52.700;6.192;2023-02-03T05:20:59;8.50;99.90
60717;DHT22;46566;52.700;6.192;2023-02-03T05:23:25;8.50;99.90
60717;DHT22;46566;52.700;6.192;2023-02-03T05:25:50;8.50;99.90
60717;DHT22;46566;52.700;6.192;2023-02-03T05:28:16;8.50;99.90
60717;DHT22;46566;52.700;6.192;2023-02-03T05:30:42;8.50;99.90
60717;DHT22;46566;52.700;6.192;2023-02-03T05:33:07;8.50;99.90
60717;DHT22;46566;52.700;6.192;2023-02-03T05:35:33;8.50;99.90
60717;DHT22;46566;52.700;6.192;2023-02-03T05:37:59;8.50;99.90
60717;DHT22;46566;52.700;6.192;2023-02-03T05:40:25;8.50;99.90
60717;DHT22;46566;52.700;6.192;2023-02-03T05:43:09;8.50;99.90
60717;DHT22;46566;52.700;6.192;2023-02-03T05:45:35;8.50;99.90
60717;DHT22;46566;52.700;6.192;2023-02-03T05:48:01;8.50;99.90
60717;DHT22;46566;52.700;6.192;2023-02-03T05:50:28;8.50;99.90
60717;DHT22;46566;52.700;6.192;2023-02-03T05:53:06;8.50;99.90
60717;DHT22;46566;52.700;6.192;2023-02-03T05:55:32;8.50;99.90
60717;DHT22;46566;52.700;6.192;2023-02-03T05:57:59;8.50;99.90
60717;DHT22;46566;52.700;6.192;2023-02-03T06:00:26;8.50;99.90
60717;DHT22;46566;52.700;6.192;2023-02-03T06:02:52;8.50;99.90
60717;DHT22;46566;52.700;6.192;2023-02-03T06:05:19;8.50;99.90
60717;DHT22;46566;52.700;6.192;2023-02-03T06:07:45;8.40;99.90
60717;DHT22;46566;52.700;6.192;2023-02-03T06:10:10;8.40;99.90
60717;DHT22;46566;52.700;6.192;2023-02-03T06:12:37;8.40;99.90
60717;DHT22;46566;52.700;6.192;2023-02-03T06:15:03;8.40;99.90
60717;DHT22;46566;52.700;6.192;2023-02-03T06:17:29;8.40;99.90
60717;DHT22;46566;52.700;6.192;2023-02-03T06:19:54;8.40;99.90
60717;DHT22;46566;52.700;6.192;2023-02-03T06:22:20;8.40;99.90
60717;DHT22;46566;52.700;6.192;2023-02-03T06:24:45;8.40;99.90
60717;DHT22;46566;52.700;6.192;2023-02-03T06:27:13;8.40;99.90
60717;DHT22;46566;52.700;6.192;2023-02-03T06:29:39;8.40;99.90
60717;DHT22;46566;52.700;6.192;2023-02-03T06:32:05;8.40;99.90
60717;DHT22;46566;52.700;6.192;2023-02-03T06:34:31;8.40;99.90
60717;DHT22;46566;52.700;6.192;2023-02-03T06:36:57;8.40;99.90
60717;DHT22;46566;52.700;6.192;2023-02-03T06:39:23;8.40;99.90
60717;DHT22;46566;52.700;6.192;2023-02-03T06:41:49;8.50;99.90
60717;DHT22;46566;52.700;6.192;2023-02-03T06:44:19;8.50;99.90
60717;DHT22;46566;52.700;6.192;2023-02-03T06:46:44;8.40;99.90
60717;DHT22;46566;52.700;6.192;2023-02-03T06:49:10;8.40;99.90
60717;DHT22;46566;52.700;6.192;2023-02-03T06:51:36;8.50;99.90
60717;DHT22;46566;52.700;6.192;2023-02-03T06:54:02;8.40;99.90
60717;DHT22;46566;52.700;6.192;2023-02-03T06:56:32;8.40;99.90
60717;DHT22;46566;52.700;6.192;2023-02-03T06:58:57;8.40;99.90
60717;DHT22;46566;52.700;6.192;2023-02-03T07:01:23;8.40;99.90
60717;DHT22;46566;52.700;6.192;2023-02-03T07:03:50;8.40;99.90
60717;DHT22;46566;52.700;6.192;2023-02-03T07:06:16;8.50;99.90
60717;DHT22;46566;52.700;6.192;2023-02-03T07:08:42;8.50;99.90
60717;DHT22;46566;52.700;6.192;2023-02-03T07:11:08;8.50;99.90
60717;DHT22;46566;52.700;6.192;2023-02-03T07:13:34;8.50;99.90
60717;DHT22;46566;52.700;6.192;2023-02-03T07:15:59;8.50;99.90
60717;DHT22;46566;52.700;6.192;2023-02-03T07:18:25;8.60;99.90
60717;DHT22;46566;52.700;6.192;2023-02-03T07:20:51;8.60;99.90
60717;DHT22;46566;52.700;6.192;2023-02-03T07:23:19;8.60;99.90
60717;DHT22;46566;52.700;6.192;2023-02-03T07:25:45;8.60;99.90
60717;DHT22;46566;52.700;6.192;2023-02-03T07:28:10;8.70;99.90
60717;DHT22;46566;52.700;6.192;2023-02-03T07:30:36;8.70;99.90
60717;DHT22;46566;52.700;6.192;2023-02-03T07:33:02;8.70;99.90
60717;DHT22;46566;52.700;6.192;2023-02-03T07:35:27;8.70;99.90
60717;DHT22;46566;52.700;6.192;2023-02-03T07:37:53;8.70;99.90
60717;DHT22;46566;52.700;6.192;2023-02-03T07:40:19;8.70;99.90
60717;DHT22;46566;52.700;6.192;2023-02-03T07:42:46;8.80;99.90
60717;DHT22;46566;52.700;6.192;2023-02-03T07:45:14;8.80;99.90
60717;DHT22;46566;52.700;6.192;2023-02-03T07:47:41;8.80;99.90
60717;DHT22;46566;52.700;6.192;2023-02-03T07:50:08;8.80;99.90
60717;DHT22;46566;52.700;6.192;2023-02-03T07:52:34;8.90;99.90
60717;DHT22;46566;52.700;6.192;2023-02-03T07:55:00;8.90;99.90
60717;DHT22;46566;52.700;6.192;2023-02-03T07:57:25;8.90;99.90
60717;DHT22;46566;52.700;6.192;2023-02-03T07:59:51;8.90;99.90
60717;DHT22;46566;52.700;6.192;2023-02-03T08:02:17;8.90;99.90
60717;DHT22;46566;52.700;6.192;2023-02-03T08:04:42;8.90;99.90
60717;DHT22;46566;52.700;6.192;2023-02-03T08:07:08;8.90;99.90
60717;DHT22;46566;52.700;6.192;2023-02-03T08:09:34;8.90;99.90
60717;DHT22;46566;52.700;6.192;2023-02-03T08:11:59;8.90;99.90
60717;DHT22;46566;52.700;6.192;2023-02-03T08:14:25;9.00;99.90
60717;DHT22;46566;52.700;6.192;2023-02-03T08:16:51;8.90;99.90
60717;DHT22;46566;52.700;6.192;2023-02-03T08:19:16;8.90;99.90
60717;DHT22;46566;52.700;6.192;2023-02-03T08:21:42;9.00;99.90
60717;DHT22;46566;52.700;6.192;2023-02-03T08:24:08;9.00;99.90
60717;DHT22;46566;52.700;6.192;2023-02-03T08:26:35;9.00;99.90
60717;DHT22;46566;52.700;6.192;2023-02-03T08:29:00;9.00;99.90
60717;DHT22;46566;52.700;6.192;2023-02-03T08:31:26;9.00;99.90
60717;DHT22;46566;52.700;6.192;2023-02-03T08:33:52;9.00;99.90
60717;DHT22;46566;52.700;6.192;2023-02-03T08:36:17;9.00;99.90
60717;DHT22;46566;52.700;6.192;2023-02-03T08:38:43;9.10;99.90
60717;DHT22;46566;52.700;6.192;2023-02-03T08:41:14;9.10;99.90
60717;DHT22;46566;52.700;6.192;2023-02-03T08:43:40;9.10;99.90
60717;DHT22;46566;52.700;6.192;2023-02-03T08:46:08;9.10;99.90
60717;DHT22;46566;52.700;6.192;2023-02-03T08:48:34;9.10;99.90
60717;DHT22;46566;52.700;6.192;2023-02-03T08:51:00;9.10;99.90
60717;DHT22;46566;52.700;6.192;2023-02-03T08:53:26;9.10;99.90
60717;DHT22;46566;52.700;6.192;2023-02-03T08:55:52;9.10;99.90
60717;DHT22;46566;52.700;6.192;2023-02-03T08:58:18;9.10;99.90
60717;DHT22;46566;52.700;6.192;2023-02-03T09:00:43;9.20;99.90
60717;DHT22;46566;52.700;6.192;2023-02-03T09:03:09;9.20;99.90
60717;DHT22;46566;52.700;6.192;2023-02-03T09:05:35;9.20;99.90
60717;DHT22;46566;52.700;6.192;2023-02-03T09:08:02;9.20;99.90
60717;DHT22;46566;52.700;6.192;2023-02-03T09:10:28;9.20;99.90
60717;DHT22;46566;52.700;6.192;2023-02-03T09:12:53;9.20;99.90
60717;DHT22;46566;52.700;6.192;2023-02-03T09:15:20;9.10;99.90
60717;DHT22;46566;52.700;6.192;2023-02-03T09:17:46;9.10;99.90
60717;DHT22;46566;52.700;6.192;2023-02-03T09:20:11;9.10;99.90
60717;DHT22;46566;52.700;6.192;2023-02-03T09:22:40;9.10;99.90
60717;DHT22;46566;52.700;6.192;2023-02-03T09:25:06;9.10;99.90
60717;DHT22;46566;52.700;6.192;2023-02-03T09:27:32;9.10;99.90
60717;DHT22;46566;52.700;6.192;2023-02-03T09:29:58;9.10;99.90
60717;DHT22;46566;52.700;6.192;2023-02-03T09:32:23;9.10;99.90
60717;DHT22;46566;52.700;6.192;2023-02-03T09:34:49;9.10;99.90
60717;DHT22;46566;52.700;6.192;2023-02-03T09:37:15;9.10;99.90
60717;DHT22;46566;52.700;6.192;2023-02-03T09:39:41;9.10;99.90
60717;DHT22;46566;52.700;6.192;2023-02-03T09:42:28;9.10;99.90
60717;DHT22;46566;52.700;6.192;2023-02-03T09:45:13;9.10;99.90
60717;DHT22;46566;52.700;6.192;2023-02-03T09:47:42;9.20;99.90
60717;DHT22;46566;52.700;6.192;2023-02-03T09:50:20;9.10;99.90
60717;DHT22;46566;52.700;6.192;2023-02-03T09:52:47;9.10;99.90
60717;DHT22;46566;52.700;6.192;2023-02-03T09:55:23;9.10;99.90
60717;DHT22;46566;52.700;6.192;2023-02-03T09:58:12;9.10;99.90
60717;DHT22;46566;52.700;6.192;2023-02-03T10:00:40;9.10;99.90
60717;DHT22;46566;52.700;6.192;2023-02-03T10:03:25;9.10;99.90
60717;DHT22;46566;52.700;6.192;2023-02-03T10:06:21;9.20;99.90
60717;DHT22;46566;52.700;6.192;2023-02-03T10:09:02;9.10;99.90
60717;DHT22;46566;52.700;6.192;2023-02-03T10:22:29;9.20;99.90
60717;DHT22;46566;52.700;6.192;2023-02-03T10:27:31;9.20;99.90
60717;DHT22;46566;52.700;6.192;2023-02-03T10:32:31;9.20;99.90
60717;DHT22;46566;52.700;6.192;2023-02-03T10:34:59;9.20;99.90
60717;DHT22;46566;52.700;6.192;2023-02-03T10:37:29;9.30;99.90
60717;DHT22;46566;52.700;6.192;2023-02-03T10:39:58;9.30;99.90
60717;DHT22;46566;52.700;6.192;2023-02-03T10:42:25;9.30;99.90
60717;DHT22;46566;52.700;6.192;2023-02-03T10:45:11;9.30;99.90
60717;DHT22;46566;52.700;6.192;2023-02-03T10:47:41;9.30;99.90
60717;DHT22;46566;52.700;6.192;2023-02-03T10:50:19;9.30;99.90
60717;DHT22;46566;52.700;6.192;2023-02-03T10:52:45;9.30;99.90
60717;DHT22;46566;52.700;6.192;2023-02-03T10:57:49;9.40;99.90
60717;DHT22;46566;52.700;6.192;2023-02-03T11:00:27;9.40;99.90
60717;DHT22;46566;52.700;6.192;2023-02-03T11:03:03;9.40;99.90
60717;DHT22;46566;52.700;6.192;2023-02-03T11:05:29;9.40;99.90
60717;DHT22;46566;52.700;6.192;2023-02-03T11:07:55;9.50;99.90
60717;DHT22;46566;52.700;6.192;2023-02-03T11:10:50;9.50;99.90
60717;DHT22;46566;52.700;6.192;2023-02-03T11:13:26;9.50;99.90
60717;DHT22;46566;52.700;6.192;2023-02-03T11:16:06;9.60;99.90
60717;DHT22;46566;52.700;6.192;2023-02-03T11:21:22;9.60;99.90
60717;DHT22;46566;52.700;6.192;2023-02-03T11:26:53;9.60;99.90
60717;DHT22;46566;52.700;6.192;2023-02-03T11:29:24;9.60;99.90
60717;DHT22;46566;52.700;6.192;2023-02-03T11:31:54;9.60;99.90
60717;DHT22;46566;52.700;6.192;2023-02-03T11:34:27;9.60;99.90
60717;DHT22;46566;52.700;6.192;2023-02-03T11:36:53;9.60;99.90
60717;DHT22;46566;52.700;6.192;2023-02-03T11:39:29;9.60;99.90
60717;DHT22;46566;52.700;6.192;2023-02-03T11:42:00;9.60;99.90
60717;DHT22;46566;52.700;6.192;2023-02-03T11:44:28;9.60;99.90
60717;DHT22;46566;52.700;6.192;2023-02-03T11:47:03;9.60;99.90
60717;DHT22;46566;52.700;6.192;2023-02-03T11:52:41;9.60;99.90
60717;DHT22;46566;52.700;6.192;2023-02-03T11:55:30;9.50;99.90
60717;DHT22;46566;52.700;6.192;2023-02-03T12:09:42;9.60;99.90
60717;DHT22;46566;52.700;6.192;2023-02-03T12:12:36;9.60;99.90
60717;DHT22;46566;52.700;6.192;2023-02-03T12:21:23;9.50;99.90
60717;DHT22;46566;52.700;6.192;2023-02-03T12:29:15;9.50;99.90
60717;DHT22;46566;52.700;6.192;2023-02-03T12:37:30;9.40;99.90
60717;DHT22;46566;52.700;6.192;2023-02-03T12:40:11;9.50;99.90
60717;DHT22;46566;52.700;6.192;2023-02-03T12:42:43;9.40;99.90
60717;DHT22;46566;52.700;6.192;2023-02-03T12:47:49;9.40;99.90
60717;DHT22;46566;52.700;6.192;2023-02-03T12:50:38;9.40;99.90
60717;DHT22;46566;52.700;6.192;2023-02-03T12:53:16;9.40;99.90
60717;DHT22;46566;52.700;6.192;2023-02-03T12:56:01;9.40;99.90
60717;DHT22;46566;52.700;6.192;2023-02-03T12:58:56;9.40;99.90
60717;DHT22;46566;52.700;6.192;2023-02-03T13:01:35;9.40;99.90
60717;DHT22;46566;52.700;6.192;2023-02-03T13:09:28;9.40;99.90
60717;DHT22;46566;52.700;6.192;2023-02-03T13:12:12;9.40;99.90
60717;DHT22;46566;52.700;6.192;2023-02-03T13:20:28;9.40;99.90
60717;DHT22;46566;52.700;6.192;2023-02-03T13:22:56;9.40;99.90
60717;DHT22;46566;52.700;6.192;2023-02-03T13:26:01;9.40;99.90
60717;DHT22;46566;52.700;6.192;2023-02-03T13:34:31;9.40;99.90
60717;DHT22;46566;52.700;6.192;2023-02-03T13:39:50;9.40;99.90
60717;DHT22;46566;52.700;6.192;2023-02-03T13:42:19;9.40;99.90
60717;DHT22;46566;52.700;6.192;2023-02-03T13:44:50;9.40;99.90
60717;DHT22;46566;52.700;6.192;2023-02-03T13:47:21;9.40;99.90
60717;DHT22;46566;52.700;6.192;2023-02-03T13:52:45;9.40;99.90
60717;DHT22;46566;52.700;6.192;2023-02-03T13:55:28;9.30;99.90
60717;DHT22;46566;52.700;6.192;2023-02-03T13:57:55;9.30;99.90
60717;DHT22;46566;52.700;6.192;2023-02-03T14:05:55;9.30;99.90
60717;DHT22;46566;52.700;6.192;2023-02-03T14:21:58;9.10;99.90
60717;DHT22;46566;52.700;6.192;2023-02-03T14:24:38;9.10;99.90
60717;DHT22;46566;52.700;6.192;2023-02-03T14:27:15;9.10;99.90
60717;DHT22;46566;52.700;6.192;2023-02-03T14:29:41;9.00;99.90
60717;DHT22;46566;52.700;6.192;2023-02-03T14:32:11;9.00;99.90
60717;DHT22;46566;52.700;6.192;2023-02-03T14:34:43;9.00;99.90
60717;DHT22;46566;52.700;6.192;2023-02-03T14:37:20;9.00;99.90
60717;DHT22;46566;52.700;6.192;2023-02-03T14:39:59;9.00;99.90
60717;DHT22;46566;52.700;6.192;2023-02-03T14:45:41;9.00;99.90
60717;DHT22;46566;52.700;6.192;2023-02-03T14:54:17;9.00;99.90
60717;DHT22;46566;52.700;6.192;2023-02-03T14:56:48;9.00;99.90
60717;DHT22;46566;52.700;6.192;2023-02-03T14:59:43;9.00;99.90
60717;DHT22;46566;52.700;6.192;2023-02-03T15:02:14;9.00;99.90
60717;DHT22;46566;52.700;6.192;2023-02-03T15:04:41;9.00;99.90
60717;DHT22;46566;52.700;6.192;2023-02-03T15:07:06;9.00;99.90
60717;DHT22;46566;52.700;6.192;2023-02-03T15:09:44;9.00;99.90
60717;DHT22;46566;52.700;6.192;2023-02-03T15:12:23;9.00;99.90
60717;DHT22;46566;52.700;6.192;2023-02-03T15:14:49;9.00;99.90
60717;DHT22;46566;52.700;6.192;2023-02-03T15:17:23;9.00;99.90
60717;DHT22;46566;52.700;6.192;2023-02-03T15:19:50;9.00;99.90
60717;DHT22;46566;52.700;6.192;2023-02-03T15:22:26;8.90;99.90
60717;DHT22;46566;52.700;6.192;2023-02-03T15:24:57;8.90;99.90
60717;DHT22;46566;52.700;6.192;2023-02-03T15:27:25;8.90;99.90
60717;DHT22;46566;52.700;6.192;2023-02-03T15:30:19;8.80;99.90
60717;DHT22;46566;52.700;6.192;2023-02-03T15:33:00;8.80;99.90
60717;DHT22;46566;52.700;6.192;2023-02-03T15:35:55;8.80;99.90
60717;DHT22;46566;52.700;6.192;2023-02-03T15:38:39;8.80;99.90
60717;DHT22;46566;52.700;6.192;2023-02-03T15:41:21;8.80;99.90
60717;DHT22;46566;52.700;6.192;2023-02-03T15:43:53;8.70;99.90
60717;DHT22;46566;52.700;6.192;2023-02-03T15:46:34;8.70;99.90
60717;DHT22;46566;52.700;6.192;2023-02-03T15:49:30;8.70;99.90
60717;DHT22;46566;52.700;6.192;2023-02-03T15:52:06;8.70;99.90
60717;DHT22;46566;52.700;6.192;2023-02-03T15:54:52;8.70;99.90
60717;DHT22;46566;52.700;6.192;2023-02-03T15:57:29;8.60;99.90
60717;DHT22;46566;52.700;6.192;2023-02-03T16:00:00;8.60;99.90
60717;DHT22;46566;52.700;6.192;2023-02-03T16:02:51;8.60;99.90
60717;DHT22;46566;52.700;6.192;2023-02-03T16:05:30;8.50;99.90
60717;DHT22;46566;52.700;6.192;2023-02-03T16:07:56;8.50;99.90
60717;DHT22;46566;52.700;6.192;2023-02-03T16:10:37;8.50;99.90
60717;DHT22;46566;52.700;6.192;2023-02-03T16:13:18;8.50;99.90
60717;DHT22;46566;52.700;6.192;2023-02-03T16:16:20;8.50;99.90
60717;DHT22;46566;52.700;6.192;2023-02-03T16:19:04;8.40;99.90
60717;DHT22;46566;52.700;6.192;2023-02-03T16:33:11;8.30;99.90
60717;DHT22;46566;52.700;6.192;2023-02-03T16:35:59;8.20;99.90
60717;DHT22;46566;52.700;6.192;2023-02-03T16:38:45;8.20;99.90
60717;DHT22;46566;52.700;6.192;2023-02-03T16:41:30;8.20;99.90
60717;DHT22;46566;52.700;6.192;2023-02-03T16:44:14;8.10;99.90
60717;DHT22;46566;52.700;6.192;2023-02-03T16:46:59;8.10;99.90
60717;DHT22;46566;52.700;6.192;2023-02-03T16:49:43;8.10;99.90
60717;DHT22;46566;52.700;6.192;2023-02-03T16:52:27;8.00;99.90
60717;DHT22;46566;52.700;6.192;2023-02-03T16:54:53;8.00;99.90
60717;DHT22;46566;52.700;6.192;2023-02-03T16:57:19;8.00;99.90
60717;DHT22;46566;52.700;6.192;2023-02-03T16:59:45;7.90;99.90
60717;DHT22;46566;52.700;6.192;2023-02-03T17:02:10;7.90;99.90
60717;DHT22;46566;52.700;6.192;2023-02-03T17:04:36;7.90;99.90
60717;DHT22;46566;52.700;6.192;2023-02-03T17:07:01;7.80;99.90
60717;DHT22;46566;52.700;6.192;2023-02-03T17:09:30;7.80;99.90
60717;DHT22;46566;52.700;6.192;2023-02-03T17:12:00;7.80;99.90
60717;DHT22;46566;52.700;6.192;2023-02-03T17:14:26;7.80;99.90
60717;DHT22;46566;52.700;6.192;2023-02-03T17:16:51;7.80;99.90
60717;DHT22;46566;52.700;6.192;2023-02-03T17:19:17;7.70;99.90
60717;DHT22;46566;52.700;6.192;2023-02-03T17:21:43;7.70;99.90
60717;DHT22;46566;52.700;6.192;2023-02-03T17:24:08;7.70;99.90
60717;DHT22;46566;52.700;6.192;2023-02-03T17:26:34;7.70;99.90
60717;DHT22;46566;52.700;6.192;2023-02-03T17:29:00;7.70;99.90
60717;DHT22;46566;52.700;6.192;2023-02-03T17:31:28;7.70;99.90
60717;DHT22;46566;52.700;6.192;2023-02-03T17:33:54;7.70;99.90
60717;DHT22;46566;52.700;6.192;2023-02-03T17:36:20;7.60;99.90
60717;DHT22;46566;52.700;6.192;2023-02-03T17:38:52;7.60;99.90
60717;DHT22;46566;52.700;6.192;2023-02-03T17:41:25;7.60;99.90
60717;DHT22;46566;52.700;6.192;2023-02-03T17:43:52;7.60;99.90
60717;DHT22;46566;52.700;6.192;2023-02-03T17:46:21;7.60;99.90
60717;DHT22;46566;52.700;6.192;2023-02-03T17:48:47;7.50;99.90
60717;DHT22;46566;52.700;6.192;2023-02-03T17:51:19;7.50;99.90
60717;DHT22;46566;52.700;6.192;2023-02-03T17:53:46;7.50;99.90
60717;DHT22;46566;52.700;6.192;2023-02-03T17:56:15;7.50;99.90
60717;DHT22;46566;52.700;6.192;2023-02-03T17:58:41;7.50;99.90
60717;DHT22;46566;52.700;6.192;2023-02-03T18:01:16;7.50;99.90
60717;DHT22;46566;52.700;6.192;2023-02-03T18:03:47;7.50;99.90
60717;DHT22;46566;52.700;6.192;2023-02-03T18:06:14;7.50;99.90
60717;DHT22;46566;52.700;6.192;2023-02-03T18:08:40;7.50;99.90
60717;DHT22;46566;52.700;6.192;2023-02-03T18:11:07;7.50;99.90
60717;DHT22;46566;52.700;6.192;2023-02-03T18:13:37;7.40;99.90
60717;DHT22;46566;52.700;6.192;2023-02-03T18:16:05;7.40;99.90
60717;DHT22;46566;52.700;6.192;2023-02-03T18:18:31;7.40;99.90
60717;DHT22;46566;52.700;6.192;2023-02-03T18:21:02;7.40;99.90
60717;DHT22;46566;52.700;6.192;2023-02-03T18:23:28;7.40;99.90
60717;DHT22;46566;52.700;6.192;2023-02-03T18:25:54;7.40;99.90
60717;DHT22;46566;52.700;6.192;2023-02-03T18:28:21;7.40;99.90
60717;DHT22;46566;52.700;6.192;2023-02-03T18:30:47;7.40;99.90